Time;durP1;ratioP1;P1;durP2;ratioP2;P2;SDS_P1;SDS_P2;PMS_P1;PMS_P2;Temp;Humidity;BMP_temperature;BMP_pressure;BME280_temperature;BME280_humidity;BME280_pressure;Samples;Min_cycle;Max_cycle;Signal;HPM_P1;HPM_P2
2023/08/20 00:05:26;;;;;;;10.18;7.88;;;;;;;24.47;63.47;100602.09;41590730;28;20037;-68
2023/08/20 00:25:26;;;;;;;11.32;8.10;;;;;;;24.60;62.68;100584.16;41595640;28;20040;-67
2023/08/20 00:45:29;;;;;;;16.20;7.68;;;;;;;23.93;64.41;100541.50;41582783;28;20082;-66
2023/08/20 01:05:36;;;;;;;11.68;7.60;;;;;;;24.16;63.58;100588.94;41565988;28;20048;-68
2023/08/20 01:26:08;;;;;;;8.10;7.30;;;;;;;23.98;64.36;100599.28;41592402;28;20046;-67
2023/08/20 01:46:09;;;;;;;12.00;7.80;;;;;;;23.90;63.76;100604.38;41589820;28;20128;-67
2023/08/20 02:06:10;;;;;;;15.57;7.82;;;;;;;23.75;64.29;100596.78;41582958;28;20049;-68
2023/08/20 02:26:10;;;;;;;11.45;7.88;;;;;;;23.75;64.11;100588.84;41549022;28;20041;-67
2023/08/20 02:46:10;;;;;;;9.88;7.45;;;;;;;23.40;64.21;100552.19;41609621;28;20496;-68
2023/08/20 03:06:11;;;;;;;11.48;7.63;;;;;;;23.53;64.03;100583.72;41570001;28;20041;-68
2023/08/20 03:26:11;;;;;;;10.38;7.47;;;;;;;23.63;63.07;100593.38;41617799;28;20542;-67
2023/08/20 03:46:13;;;;;;;9.48;7.47;;;;;;;23.46;63.86;100600.09;41606580;28;20133;-67
2023/08/20 04:06:14;;;;;;;13.38;7.93;;;;;;;23.38;64.17;100614.91;41602098;28;20075;-66
2023/08/20 04:26:14;;;;;;;9.98;7.70;;;;;;;23.13;64.10;100601.06;41591054;28;20549;-66
2023/08/20 04:46:15;;;;;;;9.95;8.25;;;;;;;23.23;64.08;100628.44;41588828;28;20524;-67
2023/08/20 05:06:15;;;;;;;9.93;8.25;;;;;;;23.47;64.26;100636.13;41545684;28;20560;-67
2023/08/20 05:26:16;;;;;;;12.88;8.77;;;;;;;23.67;63.88;100649.47;41570220;28;20045;-66
2023/08/20 05:46:17;;;;;;;11.70;7.68;;;;;;;23.70;63.78;100643.91;41558565;28;20064;-67
2023/08/20 06:06:21;;;;;;;15.60;7.65;;;;;;;23.77;62.76;100668.06;41549158;28;20050;-67
2023/08/20 06:26:22;;;;;;;12.02;7.30;;;;;;;24.10;61.58;100637.91;41547167;28;20424;-69
2023/08/20 06:46:23;;;;;;;9.10;6.80;;;;;;;24.75;60.45;100676.50;41619741;28;20069;-70
2023/08/20 07:06:24;;;;;;;8.95;7.05;;;;;;;24.78;60.08;100655.88;41575650;28;20405;-68
2023/08/20 07:26:24;;;;;;;7.70;6.70;;;;;;;25.03;59.55;100639.59;41536733;28;20041;-68
2023/08/20 07:46:26;;;;;;;9.40;7.05;;;;;;;25.36;59.64;100680.75;41520262;28;20124;-70
2023/08/20 08:06:34;;;;;;;12.23;7.00;;;;;;;25.41;60.38;100667.09;41560235;28;20045;-67
2023/08/20 08:26:35;;;;;;;8.00;6.70;;;;;;;25.46;60.24;100683.44;41558569;28;1252812;-67
2023/08/20 08:46:38;;;;;;;7.85;6.35;;;;;;;25.50;60.16;100678.69;41595026;28;20072;-68
2023/08/20 09:06:47;;;;;;;7.22;6.43;;;;;;;25.49;59.84;100677.03;41589117;28;20041;-68
2023/08/20 09:26:48;;;;;;;6.75;6.05;;;;;;;25.51;59.80;100681.22;41279903;28;20039;-67
2023/08/20 09:46:48;;;;;;;7.15;5.53;;;;;;;25.66;59.50;100686.06;41140262;28;20059;-68
2023/08/20 10:06:50;;;;;;;6.10;5.60;;;;;;;25.62;59.45;100648.41;41232250;28;20101;-67
2023/08/20 10:27:10;;;;;;;6.25;5.22;;;;;;;25.90;59.45;100664.38;41486822;28;20573;-68
2023/08/20 10:47:16;;;;;;;6.05;5.07;;;;;;;25.89;59.60;100629.06;41601133;28;20037;-68
2023/08/20 11:07:17;;;;;;;6.22;5.32;;;;;;;26.17;58.86;100645.06;41617240;28;20042;-69
2023/08/20 11:27:18;;;;;;;5.18;4.68;;;;;;;26.31;59.07;100646.41;41622516;28;20045;-68
2023/08/20 11:47:18;;;;;;;5.15;4.65;;;;;;;26.21;59.05;100581.91;41619069;28;20521;-68
2023/08/20 12:07:19;;;;;;;4.60;4.20;;;;;;;26.49;58.97;100603.97;41615960;28;20073;-69
2023/08/20 12:27:19;;;;;;;9.20;5.10;;;;;;;26.93;59.47;100605.13;41553598;28;20038;-66
2023/08/20 12:47:20;;;;;;;5.38;4.88;;;;;;;27.17;58.42;100588.53;41526651;28;20061;-69
2023/08/20 13:07:20;;;;;;;7.25;5.40;;;;;;;27.47;57.34;100570.50;41494219;28;20325;-68
2023/08/20 13:27:21;;;;;;;6.40;5.80;;;;;;;27.72;56.76;100566.19;41493000;28;20049;-69
2023/08/20 13:47:21;;;;;;;6.65;6.05;;;;;;;27.81;56.60;100556.41;41512372;28;20051;-71
2023/08/20 14:07:23;;;;;;;6.80;6.10;;;;;;;27.96;56.47;100535.34;41531739;28;20037;-68
2023/08/20 14:27:23;;;;;;;7.67;6.87;;;;;;;27.98;57.09;100511.22;41506257;28;20054;-72
2023/08/20 14:47:24;;;;;;;9.88;6.07;;;;;;;28.06;57.66;100524.59;41456469;28;20540;-69
2023/08/20 15:07:24;;;;;;;7.07;6.38;;;;;;;27.80;57.29;100501.53;41496623;28;20128;-70
2023/08/20 15:27:28;;;;;;;6.43;5.85;;;;;;;27.80;57.55;100518.31;41467466;28;20085;-70
2023/08/20 15:47:29;;;;;;;7.57;6.20;;;;;;;27.71;58.41;100519.28;41433872;28;20060;-70
2023/08/20 16:07:30;;;;;;;7.32;6.53;;;;;;;27.59;58.64;100517.91;41518933;28;20050;-70
2023/08/20 16:27:31;;;;;;;7.73;6.23;;;;;;;27.44;58.87;100513.16;41440701;28;20049;-68
2023/08/20 16:47:32;;;;;;;6.90;6.20;;;;;;;27.63;59.62;100530.69;41481209;28;20060;-70
2023/08/20 17:07:33;;;;;;;8.30;6.40;;;;;;;27.01;60.48;100482.94;41461003;28;20052;-69
2023/08/20 17:27:34;;;;;;;7.65;6.90;;;;;;;27.32;60.30;100539.13;41455637;28;20057;-72
2023/08/20 17:47:38;;;;;;;10.95;7.35;;;;;;;27.55;59.47;100537.81;41399521;28;20081;-68
2023/08/20 18:07:39;;;;;;;20.83;11.98;;;;;;;27.89;54.88;100542.31;41385533;28;20080;-68
2023/08/20 18:27:42;;;;;;;16.20;9.98;;;;;;;27.64;58.19;100563.47;41487391;28;20139;-68
2023/08/20 18:47:43;;;;;;;18.30;9.68;;;;;;;27.62;58.70;100584.91;41485886;28;20050;-67
2023/08/20 19:07:48;;;;;;;10.55;8.32;;;;;;;27.29;58.22;100597.09;41502311;28;20037;-67
2023/08/20 19:27:58;;;;;;;11.23;9.80;;;;;;;27.12;56.36;100614.75;41493416;28;20085;-66
2023/08/20 19:48:00;;;;;;;12.80;9.75;;;;;;;26.75;57.54;100629.03;41499372;28;20543;-69
2023/08/20 20:08:03;;;;;;;12.48;9.70;;;;;;;26.73;57.18;100645.06;41502862;28;20041;-67
2023/08/20 20:28:05;;;;;;;10.98;9.15;;;;;;;26.49;57.28;100632.38;41558880;28;20081;-68
2023/08/20 20:48:07;;;;;;;10.90;9.10;;;;;;;26.72;56.27;100650.53;41570824;28;20395;-68
2023/08/20 21:08:07;;;;;;;12.52;8.45;;;;;;;26.21;57.74;100651.75;41580496;28;20040;-67
2023/08/20 21:28:10;;;;;;;10.40;9.10;;;;;;;26.31;57.38;100661.50;41554462;28;20140;-66
2023/08/20 21:48:11;;;;;;;10.40;8.88;;;;;;;26.13;58.77;100672.03;41548416;28;20095;-65
2023/08/20 22:08:13;;;;;;;11.48;9.75;;;;;;;25.93;59.98;100665.91;41549512;28;20451;-67
2023/08/20 22:28:13;;;;;;;13.52;10.13;;;;;;;25.50;61.70;100662.78;41542709;28;20060;-66
2023/08/20 22:48:14;;;;;;;13.85;11.52;;;;;;;25.26;62.38;100669.31;41453517;28;20056;-68
2023/08/20 23:08:14;;;;;;;15.20;12.23;;;;;;;25.02;63.33;100632.63;41473031;28;20079;-68
2023/08/20 23:28:15;;;;;;;17.20;12.88;;;;;;;25.24;63.35;100661.50;41560627;28;20107;-68
2023/08/20 23:48:15;;;;;;;18.10;11.95;;;;;;;25.01;64.49;100674.19;41569723;28;20037;-67
